Time;durP1;ratioP1;P1;durP2;ratioP2;P2;SDS_P1;SDS_P2;PMS_P1;PMS_P2;Temp;Humidity;BMP_temperature;BMP_pressure;BME280_temperature;BME280_humidity;BME280_pressure;Samples;Min_cycle;Max_cycle;Signal;HPM_P1;HPM_P2
2023/10/04 00:01:06;;;;;;;1.02;1.02;;;12.00;99.90;;;;;;5083429;28;20469;-73
2023/10/04 00:03:32;;;;;;;;;;;11.90;99.90;;;;;;5052948;28;20047;-74
2023/10/04 00:05:59;;;;;;;0.75;0.75;;;11.80;99.90;;;;;;5079261;28;19928;-75
2023/10/04 00:08:29;;;;;;;0.50;0.50;;;11.70;99.90;;;;;;5098438;28;20749;-73
2023/10/04 00:10:54;;;;;;;0.40;0.40;;;11.70;99.90;;;;;;5069577;28;20473;-74
2023/10/04 00:13:20;;;;;;;0.40;0.40;;;11.70;99.90;;;;;;5066381;28;20038;-74
2023/10/04 00:15:46;;;;;;;2.30;2.05;;;11.70;99.90;;;;;;5078936;28;20567;-73
2023/10/04 00:18:11;;;;;;;0.38;0.38;;;11.70;99.90;;;;;;5068746;28;20039;-73
2023/10/04 00:20:38;;;;;;;0.30;0.30;;;11.70;99.90;;;;;;5034346;28;20044;-74
2023/10/04 00:23:04;;;;;;;0.40;0.40;;;11.70;99.90;;;;;;5079312;28;20040;-74
2023/10/04 00:25:30;;;;;;;0.30;0.30;;;11.70;99.90;;;;;;5071325;28;20056;-74
2023/10/04 00:27:56;;;;;;;0.32;0.32;;;11.80;99.90;;;;;;5065986;28;20051;-73
2023/10/04 00:30:25;;;;;;;0.52;0.52;;;11.80;99.90;;;;;;5066616;28;20055;-73
2023/10/04 00:32:53;;;;;;;0.40;0.40;;;11.80;99.90;;;;;;5053687;28;20393;-75
2023/10/04 00:35:19;;;;;;;0.32;0.32;;;11.80;99.90;;;;;;5070580;28;20051;-73
2023/10/04 00:37:57;;;;;;;0.50;0.50;;;11.70;99.90;;;;;;5069517;28;20488;-73
2023/10/04 00:40:27;;;;;;;0.73;0.73;;;11.70;99.90;;;;;;5068437;28;20079;-74
2023/10/04 00:42:55;;;;;;;0.30;0.30;;;11.70;99.90;;;;;;5068201;28;20047;-72
2023/10/04 00:45:22;;;;;;;0.68;0.68;;;11.80;99.90;;;;;;5053216;28;20109;-72
2023/10/04 00:47:51;;;;;;;0.73;0.73;;;11.70;99.90;;;;;;5057379;28;20036;-74
2023/10/04 00:50:22;;;;;;;0.50;0.50;;;11.70;99.90;;;;;;5071907;28;20922;-73
2023/10/04 00:53:00;;;;;;;0.30;0.30;;;11.80;99.90;;;;;;5054291;28;20044;-74
2023/10/04 00:55:27;;;;;;;0.43;0.43;;;11.80;99.90;;;;;;5071497;28;20048;-74
2023/10/04 00:57:55;;;;;;;1.00;1.00;;;11.80;99.90;;;;;;5070819;28;20049;-73
2023/10/04 01:00:22;;;;;;;1.10;0.88;;;11.90;99.90;;;;;;5070332;28;20083;-74
2023/10/04 01:02:48;;;;;;;0.50;0.50;;;11.80;99.90;;;;;;5084974;28;20036;-73
2023/10/04 01:05:16;;;;;;;0.43;0.43;;;11.80;99.90;;;;;;5074055;28;20089;-73
2023/10/04 01:07:47;;;;;;;0.40;0.40;;;11.80;99.90;;;;;;5056375;28;20032;-73
2023/10/04 01:10:17;;;;;;;1.23;1.23;;;11.70;99.90;;;;;;5070516;28;20036;-73
2023/10/04 01:12:46;;;;;;;0.40;0.40;;;11.60;99.90;;;;;;5056760;28;20082;-76
2023/10/04 01:17:59;;;;;;;0.55;0.55;;;11.50;99.90;;;;;;5072563;28;20047;-73
2023/10/04 01:20:28;;;;;;;0.30;0.30;;;11.50;99.90;;;;;;5073306;28;20036;-73
2023/10/04 01:23:06;;;;;;;0.57;0.57;;;11.40;99.90;;;;;;5073114;28;20042;-74
2023/10/04 01:25:34;;;;;;;0.40;0.40;;;11.40;99.90;;;;;;5077833;28;20052;-73
2023/10/04 01:28:12;;;;;;;0.38;0.38;;;11.40;99.90;;;;;;5084219;28;20102;-73
2023/10/04 01:30:42;;;;;;;0.50;0.50;;;11.30;99.90;;;;;;5067198;28;20078;-73
2023/10/04 01:33:15;;;;;;;0.43;0.43;;;11.20;99.90;;;;;;5085547;28;20115;-73
2023/10/04 01:35:42;;;;;;;0.57;0.57;;;11.20;99.90;;;;;;5081052;28;20036;-73
2023/10/04 01:38:08;;;;;;;1.77;1.65;;;11.20;99.90;;;;;;5076736;28;20131;-73
2023/10/04 01:40:35;;;;;;;0.50;0.50;;;11.20;99.90;;;;;;5077142;28;20150;-73
2023/10/04 01:43:17;;;;;;;0.47;0.47;;;11.10;99.90;;;;;;5077630;28;20044;-73
2023/10/04 01:45:47;;;;;;;0.40;0.40;;;11.10;99.90;;;;;;5078737;28;20396;-72
2023/10/04 01:48:15;;;;;;;1.65;1.27;;;11.10;99.90;;;;;;5077693;28;20052;-72
2023/10/04 01:50:42;;;;;;;0.30;0.30;;;11.10;99.90;;;;;;5083376;28;20378;-74
2023/10/04 01:53:08;;;;;;;0.45;0.45;;;11.10;99.90;;;;;;5052570;28;20052;-72
2023/10/04 01:55:34;;;;;;;0.50;0.50;;;11.00;99.90;;;;;;5078826;28;20378;-71
2023/10/04 01:57:59;;;;;;;0.40;0.40;;;11.10;99.90;;;;;;5083817;28;20044;-73
2023/10/04 02:00:28;;;;;;;0.95;0.63;;;11.10;99.90;;;;;;5054393;28;20045;-74
2023/10/04 02:02:54;;;;;;;3.17;0.43;;;11.10;99.90;;;;;;5074952;28;20040;-72
2023/10/04 02:05:27;;;;;;;;;;;11.00;99.90;;;;;;5079511;28;20548;-73
2023/10/04 02:07:53;;;;;;;0.30;0.30;;;11.00;99.90;;;;;;5079263;28;19923;-73
2023/10/04 02:10:19;;;;;;;0.32;0.32;;;10.90;99.90;;;;;;5080207;28;20035;-73
2023/10/04 02:12:45;;;;;;;0.35;0.35;;;10.90;99.90;;;;;;5063764;28;20039;-74
2023/10/04 02:15:17;;;;;;;;;;;10.90;99.90;;;;;;5080665;28;20067;-73
2023/10/04 02:17:44;;;;;;;0.95;0.95;;;10.90;99.90;;;;;;5060227;28;19924;-73
2023/10/04 02:20:23;;;;;;;0.50;0.50;;;10.90;99.90;;;;;;5079388;28;20091;-73
2023/10/04 02:22:50;;;;;;;0.50;0.50;;;11.00;99.90;;;;;;5104566;28;21123;-72
2023/10/04 02:25:15;;;;;;;0.40;0.40;;;11.10;99.90;;;;;;5074935;28;20050;-72
2023/10/04 02:27:43;;;;;;;0.40;0.40;;;11.10;99.90;;;;;;5098828;28;20051;-73
2023/10/04 02:30:15;;;;;;;0.77;0.77;;;11.20;99.90;;;;;;5054406;28;20044;-71
2023/10/04 02:32:44;;;;;;;0.30;0.30;;;11.20;99.90;;;;;;5070224;28;20473;-72
2023/10/04 02:35:19;;;;;;;0.68;0.68;;;11.20;99.90;;;;;;5073589;28;20059;-72
2023/10/04 02:37:45;;;;;;;0.40;0.40;;;11.20;99.90;;;;;;5064871;28;20112;-73
2023/10/04 02:40:14;;;;;;;0.40;0.40;;;11.20;99.90;;;;;;5069824;28;20083;-73
2023/10/04 02:42:44;;;;;;;0.30;0.30;;;11.20;99.90;;;;;;5077016;28;20051;-72
2023/10/04 02:45:18;;;;;;;0.40;0.40;;;11.20;99.90;;;;;;5069258;28;20078;-72
2023/10/04 02:47:45;;;;;;;0.40;0.40;;;11.10;99.90;;;;;;5067095;28;20041;-73
2023/10/04 02:50:10;;;;;;;0.40;0.40;;;11.10;99.90;;;;;;5073769;28;20097;-72
2023/10/04 02:52:36;;;;;;;0.80;0.80;;;11.00;99.90;;;;;;5075609;28;20040;-72
2023/10/04 02:55:02;;;;;;;0.43;0.43;;;11.00;99.90;;;;;;5054663;28;20043;-73
2023/10/04 02:57:28;;;;;;;0.65;0.65;;;11.10;99.90;;;;;;5057100;28;20050;-73
2023/10/04 02:59:54;;;;;;;0.30;0.30;;;11.10;99.90;;;;;;5078865;28;20040;-73
2023/10/04 03:02:21;;;;;;;0.40;0.40;;;11.20;99.90;;;;;;5080644;28;20039;-73
2023/10/04 03:04:50;;;;;;;;;;;11.30;99.90;;;;;;5077286;28;20044;-73
2023/10/04 03:07:15;;;;;;;2.50;1.50;;;11.30;99.90;;;;;;5071673;28;19923;-75
2023/10/04 03:09:43;;;;;;;0.30;0.30;;;11.40;99.90;;;;;;5076167;28;20028;-76
2023/10/04 03:12:12;;;;;;;0.40;0.40;;;11.40;99.90;;;;;;5072438;28;20115;-76
2023/10/04 03:14:41;;;;;;;0.40;0.40;;;11.40;99.90;;;;;;5072518;28;20083;-74
2023/10/04 03:17:07;;;;;;;0.93;0.93;;;11.40;99.90;;;;;;5070732;28;20061;-76
2023/10/04 03:19:36;;;;;;;0.30;0.30;;;11.30;99.90;;;;;;5054911;28;20044;-74
2023/10/04 03:22:01;;;;;;;0.73;0.73;;;11.30;99.90;;;;;;5058635;28;20051;-76
2023/10/04 03:24:27;;;;;;;0.35;0.35;;;11.30;99.90;;;;;;5056373;28;20068;-74
2023/10/04 03:26:53;;;;;;;0.40;0.40;;;11.30;99.90;;;;;;5057539;28;20140;-74
2023/10/04 03:29:19;;;;;;;0.40;0.40;;;11.30;99.90;;;;;;5075278;28;20374;-75
2023/10/04 03:31:48;;;;;;;0.40;0.40;;;11.30;99.90;;;;;;5074139;28;20169;-74
2023/10/04 03:34:13;;;;;;;0.32;0.32;;;11.30;99.90;;;;;;5064084;28;20048;-73
2023/10/04 03:36:39;;;;;;;0.30;0.30;;;11.30;99.90;;;;;;5077363;28;20044;-75
2023/10/04 03:39:09;;;;;;;0.40;0.40;;;11.30;99.90;;;;;;5079712;28;20043;-75
2023/10/04 03:41:36;;;;;;;0.40;0.40;;;11.30;99.90;;;;;;5061808;28;20043;-74
2023/10/04 03:44:05;;;;;;;0.40;0.40;;;11.20;99.90;;;;;;5058905;28;20104;-75
2023/10/04 03:46:31;;;;;;;0.30;0.30;;;11.20;99.90;;;;;;5077088;28;20048;-74
2023/10/04 03:48:58;;;;;;;0.40;0.40;;;11.20;99.90;;;;;;5060047;28;20044;-75
2023/10/04 03:51:24;;;;;;;0.47;0.47;;;11.10;99.90;;;;;;5076742;28;20040;-73
2023/10/04 03:53:51;;;;;;;0.32;0.32;;;11.10;99.90;;;;;;5077550;28;20363;-75
2023/10/04 03:56:17;;;;;;;0.30;0.30;;;11.10;99.90;;;;;;5062420;28;20423;-74
2023/10/04 03:58:46;;;;;;;0.47;0.47;;;11.10;99.90;;;;;;5078062;28;20048;-73
2023/10/04 04:01:14;;;;;;;0.30;0.30;;;11.10;99.90;;;;;;5060835;28;20051;-73
2023/10/04 04:03:40;;;;;;;0.30;0.30;;;11.00;99.90;;;;;;5076479;28;20500;-73
2023/10/04 04:06:07;;;;;;;0.50;0.50;;;11.10;99.90;;;;;;5074199;28;20024;-74
2023/10/04 04:08:33;;;;;;;0.35;0.35;;;11.10;99.90;;;;;;5056956;28;20040;-72
2023/10/04 04:10:58;;;;;;;0.50;0.50;;;11.10;99.90;;;;;;5074170;28;20049;-74
2023/10/04 04:13:24;;;;;;;0.40;0.40;;;11.10;99.90;;;;;;5060661;28;20036;-74
2023/10/04 04:15:51;;;;;;;0.50;0.50;;;11.20;99.90;;;;;;5080835;28;20082;-75
2023/10/04 04:18:20;;;;;;;0.40;0.40;;;11.20;99.90;;;;;;5082154;28;20624;-73
2023/10/04 04:20:49;;;;;;;0.40;0.40;;;11.20;99.90;;;;;;5074896;28;20049;-75
2023/10/04 04:23:15;;;;;;;0.40;0.40;;;11.30;99.90;;;;;;5075414;28;20090;-75
2023/10/04 04:25:43;;;;;;;0.70;0.70;;;11.20;99.90;;;;;;5077080;28;20052;-76
2023/10/04 04:28:09;;;;;;;0.40;0.40;;;11.20;99.90;;;;;;5075067;28;20048;-73
2023/10/04 04:30:35;;;;;;;0.40;0.40;;;11.10;99.90;;;;;;5076927;28;20051;-74
2023/10/04 04:33:04;;;;;;;;;;;11.10;99.90;;;;;;5079401;28;20028;-76
2023/10/04 04:38:21;;;;;;;0.40;0.40;;;11.10;99.90;;;;;;5075325;28;20090;-75
2023/10/04 04:40:59;;;;;;;1.48;0.57;;;11.10;99.90;;;;;;5076208;28;20500;-74
2023/10/04 04:45:58;;;;;;;0.40;0.40;;;11.10;99.90;;;;;;5071103;28;20127;-73
2023/10/04 04:48:29;;;;;;;0.40;0.40;;;11.00;99.90;;;;;;5070246;28;20504;-73
2023/10/04 04:51:10;;;;;;;0.30;0.30;;;11.10;99.90;;;;;;5084174;28;20101;-74
2023/10/04 04:53:41;;;;;;;0.40;0.40;;;11.10;99.90;;;;;;5078141;28;20071;-72
2023/10/04 04:56:18;;;;;;;0.30;0.30;;;11.00;99.90;;;;;;5077316;28;20098;-72
2023/10/04 04:58:48;;;;;;;0.30;0.30;;;11.10;99.90;;;;;;5079705;28;20071;-74
2023/10/04 05:01:14;;;;;;;0.40;0.40;;;11.10;99.90;;;;;;5056724;28;20041;-75
2023/10/04 05:03:42;;;;;;;0.40;0.40;;;11.10;99.90;;;;;;5061687;28;20036;-74
2023/10/04 05:06:14;;;;;;;0.57;0.57;;;11.10;99.90;;;;;;5076088;28;20047;-74
2023/10/04 05:08:43;;;;;;;0.40;0.40;;;11.10;99.90;;;;;;5055878;28;20072;-74
2023/10/04 05:11:09;;;;;;;0.32;0.32;;;11.10;99.90;;;;;;5055735;28;20041;-73
2023/10/04 05:13:36;;;;;;;0.50;0.50;;;11.10;99.90;;;;;;5071696;28;20147;-74
2023/10/04 05:16:02;;;;;;;0.40;0.40;;;11.10;99.90;;;;;;5073204;28;20405;-74
2023/10/04 05:18:28;;;;;;;0.30;0.30;;;11.10;99.90;;;;;;5072058;28;20048;-72
2023/10/04 05:20:54;;;;;;;0.32;0.32;;;11.10;99.90;;;;;;5075645;28;20040;-74
2023/10/04 05:23:24;;;;;;;0.30;0.30;;;11.00;99.90;;;;;;5053373;28;20045;-73
2023/10/04 05:25:52;;;;;;;0.63;0.55;;;11.00;99.90;;;;;;5073435;28;20070;-73
2023/10/04 05:28:18;;;;;;;0.75;0.75;;;11.00;99.90;;;;;;5062554;28;20044;-73
2023/10/04 05:30:46;;;;;;;0.40;0.40;;;10.90;99.90;;;;;;5074353;28;20123;-74
2023/10/04 05:33:13;;;;;;;0.50;0.50;;;11.00;99.90;;;;;;5049543;28;20032;-74
2023/10/04 05:35:40;;;;;;;0.40;0.40;;;11.00;99.90;;;;;;5076564;28;20440;-74
2023/10/04 05:38:07;;;;;;;0.40;0.40;;;11.00;99.90;;;;;;5082621;28;20044;-75
2023/10/04 05:40:38;;;;;;;0.30;0.30;;;11.10;99.90;;;;;;5064477;28;20071;-75
2023/10/04 05:43:08;;;;;;;1.08;0.55;;;11.10;99.90;;;;;;5067561;28;20040;-74
2023/10/04 05:45:34;;;;;;;0.40;0.40;;;11.20;99.90;;;;;;5081881;28;20040;-74
2023/10/04 05:48:00;;;;;;;0.40;0.40;;;11.20;99.90;;;;;;5079689;28;20180;-75
2023/10/04 05:50:26;;;;;;;;;;;11.30;99.90;;;;;;5064275;28;20043;-74
2023/10/04 05:52:53;;;;;;;0.30;0.30;;;11.30;99.90;;;;;;5061714;28;19920;-74
2023/10/04 05:55:20;;;;;;;0.30;0.30;;;11.30;99.90;;;;;;5070752;28;20374;-74
2023/10/04 05:57:50;;;;;;;0.40;0.40;;;11.20;99.90;;;;;;5082448;28;20452;-75
2023/10/04 06:00:25;;;;;;;0.60;0.60;;;11.20;99.90;;;;;;5076949;28;20537;-74
2023/10/04 06:02:52;;;;;;;0.47;0.47;;;11.10;99.90;;;;;;5074073;28;20040;-75
2023/10/04 06:05:20;;;;;;;0.35;0.35;;;11.10;99.90;;;;;;5058231;28;20056;-75
2023/10/04 06:07:49;;;;;;;0.40;0.40;;;11.10;99.90;;;;;;5074208;28;20062;-74
2023/10/04 06:10:16;;;;;;;2.88;2.72;;;11.10;99.90;;;;;;5078370;28;20043;-75
2023/10/04 06:12:44;;;;;;;0.40;0.40;;;11.10;99.90;;;;;;5074515;28;20510;-75
2023/10/04 06:15:10;;;;;;;0.40;0.40;;;11.10;99.90;;;;;;5080515;28;20097;-75
2023/10/04 06:17:42;;;;;;;;;;;11.10;99.90;;;;;;5076388;28;20040;-75
2023/10/04 06:20:24;;;;;;;0.40;0.40;;;11.10;99.90;;;;;;5066019;28;19942;-75
2023/10/04 06:23:17;;;;;;;0.40;0.40;;;11.10;99.90;;;;;;5075528;28;20425;-75
2023/10/04 06:25:47;;;;;;;0.40;0.40;;;11.10;99.90;;;;;;5074753;28;20056;-75
2023/10/04 06:28:14;;;;;;;0.40;0.40;;;11.10;99.90;;;;;;5081192;28;20044;-75
2023/10/04 06:30:42;;;;;;;0.85;0.85;;;11.10;99.90;;;;;;5064897;28;20028;-76
2023/10/04 06:33:10;;;;;;;0.30;0.30;;;11.10;99.90;;;;;;5080673;28;20036;-76
2023/10/04 06:35:37;;;;;;;0.32;0.32;;;11.20;99.90;;;;;;5084675;28;20140;-78
2023/10/04 06:38:07;;;;;;;0.40;0.40;;;11.20;99.90;;;;;;5078631;28;20048;-76
2023/10/04 06:40:34;;;;;;;3.50;0.63;;;11.20;99.90;;;;;;5061259;28;20063;-76
2023/10/04 06:43:00;;;;;;;;;;;11.30;99.90;;;;;;5080459;28;20044;-76
2023/10/04 06:45:27;;;;;;;0.40;0.40;;;11.30;99.90;;;;;;5059188;28;20408;-77
2023/10/04 06:47:55;;;;;;;1.75;1.65;;;11.30;99.90;;;;;;5082380;28;20301;-76
2023/10/04 06:50:28;;;;;;;0.30;0.30;;;11.40;99.90;;;;;;5079856;28;20040;-75
2023/10/04 06:52:58;;;;;;;0.40;0.40;;;11.40;99.90;;;;;;5062550;28;20044;-76
2023/10/04 06:55:25;;;;;;;0.40;0.40;;;11.50;99.90;;;;;;5081496;28;20048;-76
2023/10/04 06:57:51;;;;;;;0.60;0.60;;;11.60;99.90;;;;;;5063426;28;20396;-76
2023/10/04 07:00:19;;;;;;;0.73;0.73;;;11.70;99.90;;;;;;5082957;28;20048;-76
2023/10/04 07:02:58;;;;;;;0.47;0.47;;;11.70;99.90;;;;;;5078391;28;20500;-76
2023/10/04 07:05:30;;;;;;;0.40;0.40;;;11.80;99.90;;;;;;5077380;28;20115;-79
2023/10/04 07:07:59;;;;;;;0.57;0.57;;;11.80;99.90;;;;;;5075595;28;20032;-76
2023/10/04 07:10:27;;;;;;;1.35;0.95;;;11.90;99.90;;;;;;5062722;28;20438;-80
2023/10/04 07:12:56;;;;;;;0.50;0.50;;;12.00;99.90;;;;;;5082584;28;20047;-81
2023/10/04 07:15:24;;;;;;;0.80;0.80;;;12.10;99.90;;;;;;5074873;28;20044;-81
2023/10/04 07:17:50;;;;;;;0.52;0.52;;;12.20;99.90;;;;;;5073954;28;20048;-80
2023/10/04 07:20:18;;;;;;;0.40;0.40;;;12.30;99.90;;;;;;5063619;28;20478;-79
2023/10/04 07:22:58;;;;;;;0.57;0.57;;;12.30;99.90;;;;;;5062990;28;20085;-80
2023/10/04 07:25:28;;;;;;;0.40;0.40;;;12.40;99.90;;;;;;5077420;28;20131;-78
2023/10/04 07:27:56;;;;;;;1.77;0.98;;;12.50;99.90;;;;;;5048858;28;20707;-77
2023/10/04 07:30:25;;;;;;;0.40;0.40;;;12.70;99.90;;;;;;5051204;28;20093;-77
2023/10/04 07:32:51;;;;;;;0.40;0.40;;;12.70;99.90;;;;;;5065705;28;20115;-78
2023/10/04 07:35:20;;;;;;;0.43;0.43;;;12.80;99.90;;;;;;5018564;28;20374;-78
2023/10/04 07:37:47;;;;;;;0.38;0.38;;;12.90;99.90;;;;;;5060679;28;20037;-80
2023/10/04 07:40:14;;;;;;;0.50;0.50;;;13.00;99.90;;;;;;5070013;28;20051;-80
2023/10/04 07:42:45;;;;;;;0.38;0.38;;;13.10;99.90;;;;;;5052069;28;20051;-79
2023/10/04 07:45:12;;;;;;;0.50;0.50;;;13.20;99.90;;;;;;5048515;28;20058;-78
2023/10/04 07:47:42;;;;;;;0.28;0.28;;;13.30;99.90;;;;;;5030263;28;20049;-79
2023/10/04 07:50:10;;;;;;;0.50;0.50;;;13.40;99.90;;;;;;5058396;28;20044;-79
2023/10/04 07:52:40;;;;;;;0.30;0.30;;;13.50;99.90;;;;;;5046942;28;20488;-80
2023/10/04 07:55:14;;;;;;;0.30;0.30;;;13.60;99.90;;;;;;5064662;28;20097;-79
2023/10/04 07:57:42;;;;;;;0.40;0.40;;;13.60;99.90;;;;;;5064628;28;20043;-79
2023/10/04 08:00:14;;;;;;;0.40;0.40;;;13.70;99.90;;;;;;5051012;28;20040;-80
2023/10/04 08:02:49;;;;;;;0.50;0.50;;;13.80;99.90;;;;;;5067294;28;20622;-79
2023/10/04 08:05:23;;;;;;;0.30;0.30;;;14.00;99.90;;;;;;5058375;28;20060;-81
2023/10/04 08:07:54;;;;;;;0.50;0.50;;;14.10;99.90;;;;;;5064615;28;20504;-79
2023/10/04 08:10:23;;;;;;;0.35;0.35;;;14.20;99.90;;;;;;5043701;28;20036;-78
2023/10/04 08:12:53;;;;;;;0.30;0.30;;;14.30;99.90;;;;;;5051137;28;20073;-77
2023/10/04 08:15:21;;;;;;;0.43;0.43;;;14.40;99.90;;;;;;5063576;28;20750;-78
2023/10/04 08:17:48;;;;;;;0.65;0.65;;;14.50;99.90;;;;;;5059885;28;20477;-76
2023/10/04 08:20:18;;;;;;;0.50;0.50;;;14.60;99.90;;;;;;5059227;28;20040;-78
2023/10/04 08:22:47;;;;;;;0.40;0.40;;;14.60;99.90;;;;;;5064895;28;20814;-78
2023/10/04 08:25:19;;;;;;;0.80;0.80;;;14.70;99.90;;;;;;5039665;28;20078;-78
2023/10/04 08:27:45;;;;;;;1.65;0.52;;;14.80;99.90;;;;;;5081765;28;20126;-79
2023/10/04 08:30:13;;;;;;;0.65;0.65;;;14.80;99.90;;;;;;5084972;28;20507;-78
2023/10/04 08:32:41;;;;;;;0.75;0.75;;;14.80;99.90;;;;;;5067886;28;20043;-78
2023/10/04 08:35:24;;;;;;;0.60;0.60;;;14.80;99.90;;;;;;5067581;28;20516;-77
2023/10/04 08:37:55;;;;;;;0.30;0.30;;;14.90;99.90;;;;;;5086604;28;20047;-79
2023/10/04 08:40:23;;;;;;;0.40;0.40;;;15.00;99.90;;;;;;5069777;28;20094;-79
2023/10/04 08:42:52;;;;;;;0.60;0.60;;;15.00;99.90;;;;;;5075021;28;20876;-80
2023/10/04 08:45:24;;;;;;;0.40;0.40;;;15.10;99.90;;;;;;5060879;28;20075;-78
2023/10/04 08:47:51;;;;;;;1.20;1.13;;;15.20;99.90;;;;;;5083487;28;20044;-81
2023/10/04 08:50:41;;;;;;;0.50;0.50;;;15.30;99.90;;;;;;5083164;28;20039;-79
2023/10/04 08:53:26;;;;;;;0.63;0.60;;;15.40;99.90;;;;;;5062817;28;20036;-77
2023/10/04 08:55:59;;;;;;;0.55;0.55;;;15.40;99.90;;;;;;5080997;28;20046;-78
2023/10/04 08:58:26;;;;;;;0.32;0.32;;;15.50;99.90;;;;;;5068603;28;20048;-78
2023/10/04 09:00:52;;;;;;;0.30;0.30;;;15.60;99.90;;;;;;5064159;28;20039;-78
2023/10/04 09:03:21;;;;;;;0.90;0.90;;;15.70;99.90;;;;;;5062399;28;20498;-77
2023/10/04 09:05:52;;;;;;;0.73;0.73;;;15.70;99.90;;;;;;5050940;28;20386;-80
2023/10/04 09:08:18;;;;;;;0.28;0.28;;;15.70;99.90;;;;;;5087564;28;20040;-78
2023/10/04 09:10:44;;;;;;;;;;;15.70;99.90;;;;;;5065778;28;20470;-80
2023/10/04 09:13:10;;;;;;;0.40;0.40;;;15.80;99.90;;;;;;5070300;27;19994;-79
2023/10/04 09:15:37;;;;;;;0.40;0.40;;;15.80;99.90;;;;;;5073421;28;20055;-78
2023/10/04 09:18:04;;;;;;;1.20;0.65;;;15.90;99.90;;;;;;5085441;28;20040;-80
2023/10/04 09:20:32;;;;;;;0.85;0.82;;;15.90;99.90;;;;;;5104065;28;20031;-80
2023/10/04 09:23:01;;;;;;;0.82;0.82;;;16.00;99.90;;;;;;5074736;28;20044;-80
2023/10/04 09:25:37;;;;;;;0.50;0.50;;;16.00;99.90;;;;;;5084703;28;20048;-77
2023/10/04 09:28:04;;;;;;;2.30;2.20;;;16.00;99.90;;;;;;5062696;28;20044;-79
2023/10/04 09:30:34;;;;;;;0.45;0.30;;;16.10;99.90;;;;;;5085188;28;20045;-78
2023/10/04 09:32:59;;;;;;;0.60;0.60;;;16.20;99.90;;;;;;5070742;28;20054;-81
2023/10/04 09:35:43;;;;;;;0.75;0.75;;;16.30;99.90;;;;;;5066054;28;20489;-80
2023/10/04 09:38:20;;;;;;;0.30;0.30;;;16.40;99.90;;;;;;5062642;28;20132;-78
2023/10/04 09:40:56;;;;;;;8.60;1.20;;;16.50;99.90;;;;;;5081371;28;20506;-79
2023/10/04 09:43:35;;;;;;;;;;;16.50;99.90;;;;;;5083931;28;20055;-77
2023/10/04 09:46:11;;;;;;;0.50;0.50;;;16.50;99.90;;;;;;5063096;28;19928;-78
2023/10/04 09:48:40;;;;;;;0.47;0.47;;;16.40;99.90;;;;;;5085306;28;20529;-79
2023/10/04 09:51:07;;;;;;;0.30;0.30;;;16.30;99.90;;;;;;5083148;28;20047;-78
2023/10/04 09:53:41;;;;;;;0.40;0.40;;;16.20;99.90;;;;;;5052220;28;20043;-78
2023/10/04 09:56:15;;;;;;;0.73;0.73;;;16.20;99.90;;;;;;5069460;28;20102;-77
2023/10/04 09:58:53;;;;;;;0.52;0.52;;;16.40;99.90;;;;;;5084328;28;20082;-78
2023/10/04 10:01:19;;;;;;;0.60;0.60;;;16.50;99.90;;;;;;5082754;28;20172;-79
2023/10/04 10:03:57;;;;;;;1.40;1.33;;;16.70;99.90;;;;;;5068710;28;20444;-78
2023/10/04 10:06:25;;;;;;;0.20;0.20;;;16.90;99.90;;;;;;5083543;28;20040;-78
2023/10/04 10:09:00;;;;;;;0.60;0.60;;;17.00;99.90;;;;;;5082174;28;20067;-78
2023/10/04 10:11:27;;;;;;;0.45;0.45;;;17.10;99.90;;;;;;5062443;28;20040;-80
2023/10/04 10:13:59;;;;;;;0.30;0.30;;;17.20;99.90;;;;;;5084879;28;20097;-80
2023/10/04 10:16:26;;;;;;;0.45;0.45;;;17.30;99.90;;;;;;5062772;28;20044;-80
2023/10/04 10:18:55;;;;;;;1.08;0.70;;;17.30;99.90;;;;;;5065579;28;20048;-80
2023/10/04 10:21:21;;;;;;;0.82;0.82;;;17.30;99.90;;;;;;5065490;28;20040;-78
2023/10/04 10:23:57;;;;;;;0.40;0.40;;;17.20;99.90;;;;;;5065288;28;20063;-80
2023/10/04 10:26:24;;;;;;;1.10;1.05;;;17.20;99.90;;;;;;5065927;28;20048;-81
2023/10/04 10:29:05;;;;;;;0.68;0.68;;;17.20;99.90;;;;;;5046542;28;20044;-81
2023/10/04 10:31:31;;;;;;;0.85;0.82;;;17.20;99.90;;;;;;5064347;28;20052;-79
2023/10/04 10:33:57;;;;;;;0.80;0.77;;;17.20;99.90;;;;;;5065223;28;20044;-80
2023/10/04 10:36:27;;;;;;;;;;;17.20;99.90;;;;;;5052926;28;20461;-81
2023/10/04 10:38:54;;;;;;;0.30;0.30;;;17.10;99.90;;;;;;5066175;28;19920;-80
2023/10/04 10:41:32;;;;;;;0.73;0.38;;;17.10;99.90;;;;;;5028902;28;20405;-79
2023/10/04 10:44:30;;;;;;;0.40;0.40;;;17.10;99.90;;;;;;5064053;28;20063;-81
2023/10/04 10:47:00;;;;;;;0.98;0.90;;;17.00;99.90;;;;;;5063892;28;20037;-81
2023/10/04 10:49:42;;;;;;;0.50;0.50;;;17.00;99.90;;;;;;5053963;28;20076;-80
2023/10/04 10:52:34;;;;;;;0.55;0.55;;;17.00;99.90;;;;;;5063895;28;20040;-80
2023/10/04 10:55:05;;;;;;;0.50;0.45;;;17.00;99.90;;;;;;5047569;28;20123;-81
2023/10/04 10:57:32;;;;;;;0.52;0.52;;;17.00;99.90;;;;;;5062229;28;20756;-81
2023/10/04 11:00:07;;;;;;;0.60;0.60;;;17.00;99.90;;;;;;5042271;28;20052;-80
2023/10/04 11:02:33;;;;;;;1.25;0.55;;;17.00;99.90;;;;;;5064799;28;20080;-78
2023/10/04 11:04:58;;;;;;;1.10;1.10;;;17.00;99.90;;;;;;5028374;28;20044;-80
2023/10/04 11:07:26;;;;;;;0.43;0.43;;;17.00;99.90;;;;;;5061753;28;20367;-81
2023/10/04 11:09:58;;;;;;;1.15;0.63;;;16.90;99.90;;;;;;5046607;28;20048;-80
2023/10/04 11:12:24;;;;;;;0.88;0.50;;;16.90;99.90;;;;;;5049921;28;20044;-80
2023/10/04 11:14:53;;;;;;;;;;;16.90;99.90;;;;;;5062033;28;20044;-79
2023/10/04 11:17:23;;;;;;;0.52;0.52;;;17.00;99.90;;;;;;5062589;28;20011;-79
2023/10/04 11:19:51;;;;;;;0.75;0.75;;;17.00;99.90;;;;;;5062601;28;20044;-78
2023/10/04 11:22:19;;;;;;;0.35;0.35;;;16.90;99.90;;;;;;5057091;28;20052;-79
2023/10/04 11:24:46;;;;;;;0.40;0.40;;;16.90;99.90;;;;;;5054412;28;20075;-80
2023/10/04 11:27:21;;;;;;;0.50;0.50;;;16.90;99.90;;;;;;5050662;28;20062;-81
2023/10/04 11:29:49;;;;;;;3.70;0.75;;;17.00;99.90;;;;;;5059601;28;20051;-79
2023/10/04 11:32:15;;;;;;;0.40;0.40;;;17.00;99.90;;;;;;5081325;28;20361;-77
2023/10/04 11:34:43;;;;;;;0.65;0.50;;;17.00;99.90;;;;;;5073781;28;20040;-78
2023/10/04 11:37:10;;;;;;;3.28;1.00;;;17.00;99.90;;;;;;5079534;28;20052;-81
2023/10/04 11:39:37;;;;;;;0.47;0.47;;;17.10;99.90;;;;;;5082098;28;20040;-80
2023/10/04 11:42:14;;;;;;;0.55;0.55;;;17.20;99.90;;;;;;5084961;28;20109;-79
2023/10/04 11:44:41;;;;;;;2.65;2.40;;;17.30;99.90;;;;;;5077168;28;20036;-81
2023/10/04 11:47:10;;;;;;;0.50;0.50;;;17.30;99.90;;;;;;5078239;28;20047;-81
2023/10/04 11:49:38;;;;;;;0.50;0.50;;;17.30;99.90;;;;;;5052091;28;20067;-79
2023/10/04 11:52:07;;;;;;;0.82;0.82;;;17.20;99.90;;;;;;5078340;28;20091;-81
2023/10/04 11:54:46;;;;;;;2.90;0.55;;;17.10;99.90;;;;;;5083356;28;20047;-81
2023/10/04 11:57:24;;;;;;;0.52;0.52;;;17.10;99.90;;;;;;5079596;28;20040;-81
2023/10/04 11:59:50;;;;;;;0.40;0.40;;;17.20;99.90;;;;;;5079599;28;20616;-79
2023/10/04 12:02:15;;;;;;;0.30;0.30;;;17.20;99.90;;;;;;5064399;28;20042;-80
2023/10/04 12:04:41;;;;;;;0.20;0.20;;;17.30;99.90;;;;;;5056679;28;20043;-80
2023/10/04 12:07:07;;;;;;;;;;;17.30;99.90;;;;;;5037175;28;20044;-81
2023/10/04 12:09:36;;;;;;;0.30;0.30;;;17.30;99.90;;;;;;5079599;28;19927;-80
2023/10/04 12:12:05;;;;;;;0.57;0.57;;;17.40;99.90;;;;;;5078435;28;20050;-83
2023/10/04 12:14:31;;;;;;;0.40;0.40;;;17.40;99.90;;;;;;5067369;28;20028;-79
2023/10/04 12:17:08;;;;;;;0.20;0.20;;;17.40;99.90;;;;;;5082594;28;20064;-78
2023/10/04 12:19:35;;;;;;;3.35;2.00;;;17.50;99.90;;;;;;5070141;28;20385;-82
2023/10/04 12:22:08;;;;;;;0.30;0.30;;;17.60;99.90;;;;;;5065751;28;20124;-81
2023/10/04 12:24:41;;;;;;;0.77;0.77;;;17.60;99.90;;;;;;5063285;28;20152;-78
2023/10/04 12:27:08;;;;;;;0.50;0.50;;;17.80;99.90;;;;;;5081951;28;20055;-79
2023/10/04 12:29:36;;;;;;;1.90;0.57;;;17.80;99.90;;;;;;5086143;28;20550;-81
2023/10/04 12:32:02;;;;;;;0.73;0.73;;;17.80;99.90;;;;;;5059674;28;20512;-78
2023/10/04 12:34:29;;;;;;;;;;;17.90;99.90;;;;;;5084935;28;20480;-77
2023/10/04 12:36:55;;;;;;;1.25;0.47;;;17.90;99.90;;;;;;5081954;28;19965;-76
2023/10/04 12:39:22;;;;;;;0.30;0.30;;;17.90;99.90;;;;;;5082031;28;20071;-76
2023/10/04 12:41:49;;;;;;;0.60;0.60;;;17.90;99.90;;;;;;5081498;28;20035;-77
2023/10/04 12:44:18;;;;;;;0.25;0.25;;;18.00;99.90;;;;;;5068264;28;20565;-77
2023/10/04 12:46:45;;;;;;;0.20;0.20;;;18.00;99.90;;;;;;5062886;28;20365;-74
2023/10/04 12:49:11;;;;;;;1.45;1.35;;;18.00;99.90;;;;;;5074748;28;20083;-74
2023/10/04 12:51:37;;;;;;;;;;;18.00;99.90;;;;;;5102246;28;20079;-77
2023/10/04 12:54:09;;;;;;;1.45;0.40;;;18.00;99.90;;;;;;5086576;28;19920;-77
2023/10/04 12:56:36;;;;;;;0.20;0.20;;;18.00;99.90;;;;;;5086755;28;20066;-75
2023/10/04 12:59:04;;;;;;;0.40;0.40;;;18.00;99.90;;;;;;5087425;28;20055;-75
2023/10/04 13:01:30;;;;;;;0.28;0.28;;;18.00;99.90;;;;;;5091116;28;20044;-76
2023/10/04 13:03:55;;;;;;;0.20;0.20;;;18.00;99.90;;;;;;5088733;28;20058;-73
2023/10/04 13:06:21;;;;;;;;;;;18.00;99.90;;;;;;5082343;28;20036;-74
2023/10/04 13:08:47;;;;;;;0.20;0.20;;;18.00;99.90;;;;;;5083758;28;19924;-76